sensor_id;sensor_type;location;lat;lon;timestamp;P1;durP1;ratioP1;P2;durP2;ratioP2
58338;SDS011;48278;52.704;6.536;2022-12-18T00:01:50;83.35;;;21.30;;
58338;SDS011;48278;52.704;6.536;2022-12-18T00:04:25;79.07;;;21.67;;
58338;SDS011;48278;52.704;6.536;2022-12-18T00:06:52;72.57;;;20.52;;
58338;SDS011;48278;52.704;6.536;2022-12-18T00:09:18;87.15;;;23.48;;
58338;SDS011;48278;52.704;6.536;2022-12-18T00:11:45;82.07;;;21.50;;
58338;SDS011;48278;52.704;6.536;2022-12-18T00:14:11;82.97;;;22.90;;
58338;SDS011;48278;52.704;6.536;2022-12-18T00:19:04;88.10;;;24.45;;
58338;SDS011;48278;52.704;6.536;2022-12-18T00:21:31;99.97;;;26.05;;
58338;SDS011;48278;52.704;6.536;2022-12-18T00:23:58;87.78;;;24.45;;
58338;SDS011;48278;52.704;6.536;2022-12-18T00:26:25;85.53;;;24.00;;
58338;SDS011;48278;52.704;6.536;2022-12-18T00:28:53;84.93;;;22.92;;
58338;SDS011;48278;52.704;6.536;2022-12-18T00:31:22;84.20;;;22.63;;
58338;SDS011;48278;52.704;6.536;2022-12-18T00:33:49;89.50;;;24.48;;
58338;SDS011;48278;52.704;6.536;2022-12-18T00:36:17;89.75;;;22.95;;
58338;SDS011;48278;52.704;6.536;2022-12-18T00:38:54;84.53;;;22.58;;
58338;SDS011;48278;52.704;6.536;2022-12-18T00:44:06;83.47;;;23.63;;
58338;SDS011;48278;52.704;6.536;2022-12-18T00:46:34;95.53;;;25.42;;
58338;SDS011;48278;52.704;6.536;2022-12-18T00:48:59;94.78;;;26.23;;
58338;SDS011;48278;52.704;6.536;2022-12-18T00:51:25;87.47;;;23.35;;
58338;SDS011;48278;52.704;6.536;2022-12-18T00:53:51;91.65;;;24.45;;
58338;SDS011;48278;52.704;6.536;2022-12-18T00:56:17;85.65;;;25.48;;
58338;SDS011;48278;52.704;6.536;2022-12-18T00:58:43;81.72;;;23.88;;
58338;SDS011;48278;52.704;6.536;2022-12-18T01:01:09;84.15;;;25.27;;
58338;SDS011;48278;52.704;6.536;2022-12-18T01:03:34;85.85;;;22.83;;
58338;SDS011;48278;52.704;6.536;2022-12-18T01:06:05;90.97;;;24.52;;
58338;SDS011;48278;52.704;6.536;2022-12-18T01:08:31;89.15;;;24.83;;
58338;SDS011;48278;52.704;6.536;2022-12-18T01:10:57;91.07;;;22.48;;
58338;SDS011;48278;52.704;6.536;2022-12-18T01:13:23;85.75;;;23.95;;
58338;SDS011;48278;52.704;6.536;2022-12-18T01:15:49;79.13;;;22.90;;
58338;SDS011;48278;52.704;6.536;2022-12-18T01:18:15;73.17;;;22.67;;
58338;SDS011;48278;52.704;6.536;2022-12-18T01:20:41;95.00;;;23.85;;
58338;SDS011;48278;52.704;6.536;2022-12-18T01:23:06;86.63;;;22.70;;
58338;SDS011;48278;52.704;6.536;2022-12-18T01:25:32;85.47;;;23.92;;
58338;SDS011;48278;52.704;6.536;2022-12-18T01:28:00;95.25;;;24.48;;
58338;SDS011;48278;52.704;6.536;2022-12-18T01:30:26;89.70;;;25.05;;
58338;SDS011;48278;52.704;6.536;2022-12-18T01:32:52;89.95;;;23.65;;
58338;SDS011;48278;52.704;6.536;2022-12-18T01:35:18;74.88;;;20.90;;
58338;SDS011;48278;52.704;6.536;2022-12-18T01:37:44;74.18;;;21.33;;
58338;SDS011;48278;52.704;6.536;2022-12-18T01:40:10;94.68;;;25.08;;
58338;SDS011;48278;52.704;6.536;2022-12-18T01:42:35;94.35;;;24.30;;
58338;SDS011;48278;52.704;6.536;2022-12-18T01:47:38;82.75;;;23.75;;
58338;SDS011;48278;52.704;6.536;2022-12-18T01:50:16;78.20;;;19.83;;
58338;SDS011;48278;52.704;6.536;2022-12-18T01:52:48;61.33;;;15.45;;
58338;SDS011;48278;52.704;6.536;2022-12-18T01:55:18;91.78;;;23.13;;
58338;SDS011;48278;52.704;6.536;2022-12-18T01:57:47;90.95;;;24.45;;
58338;SDS011;48278;52.704;6.536;2022-12-18T02:00:16;88.95;;;23.00;;
58338;SDS011;48278;52.704;6.536;2022-12-18T02:02:45;91.32;;;22.65;;
58338;SDS011;48278;52.704;6.536;2022-12-18T02:05:12;86.93;;;22.00;;
58338;SDS011;48278;52.704;6.536;2022-12-18T02:10:30;96.20;;;25.60;;
58338;SDS011;48278;52.704;6.536;2022-12-18T02:18:36;94.70;;;24.55;;
58338;SDS011;48278;52.704;6.536;2022-12-18T02:21:49;85.82;;;22.08;;
58338;SDS011;48278;52.704;6.536;2022-12-18T02:26:58;92.75;;;22.85;;
58338;SDS011;48278;52.704;6.536;2022-12-18T02:29:32;89.40;;;23.75;;
58338;SDS011;48278;52.704;6.536;2022-12-18T02:32:06;81.97;;;22.30;;
58338;SDS011;48278;52.704;6.536;2022-12-18T02:34:37;88.30;;;23.38;;
58338;SDS011;48278;52.704;6.536;2022-12-18T02:37:06;85.20;;;23.23;;
58338;SDS011;48278;52.704;6.536;2022-12-18T02:39:37;92.07;;;24.85;;
58338;SDS011;48278;52.704;6.536;2022-12-18T02:42:05;89.85;;;23.42;;
58338;SDS011;48278;52.704;6.536;2022-12-18T02:44:35;94.55;;;24.10;;
58338;SDS011;48278;52.704;6.536;2022-12-18T02:47:08;91.32;;;23.73;;
58338;SDS011;48278;52.704;6.536;2022-12-18T02:50:22;88.00;;;22.92;;
58338;SDS011;48278;52.704;6.536;2022-12-18T02:57:58;84.03;;;22.15;;
58338;SDS011;48278;52.704;6.536;2022-12-18T03:00:51;91.72;;;22.75;;
58338;SDS011;48278;52.704;6.536;2022-12-18T03:03:26;92.53;;;24.58;;
58338;SDS011;48278;52.704;6.536;2022-12-18T03:06:08;87.43;;;22.52;;
58338;SDS011;48278;52.704;6.536;2022-12-18T03:08:44;80.60;;;20.52;;
58338;SDS011;48278;52.704;6.536;2022-12-18T03:11:13;91.13;;;25.15;;
58338;SDS011;48278;52.704;6.536;2022-12-18T03:16:12;78.22;;;22.55;;
58338;SDS011;48278;52.704;6.536;2022-12-18T03:18:48;98.13;;;25.15;;
58338;SDS011;48278;52.704;6.536;2022-12-18T03:21:35;70.20;;;18.13;;
58338;SDS011;48278;52.704;6.536;2022-12-18T03:24:06;72.60;;;18.98;;
58338;SDS011;48278;52.704;6.536;2022-12-18T03:26:33;77.53;;;20.92;;
58338;SDS011;48278;52.704;6.536;2022-12-18T03:29:04;76.28;;;21.48;;
58338;SDS011;48278;52.704;6.536;2022-12-18T03:31:34;81.57;;;22.38;;
58338;SDS011;48278;52.704;6.536;2022-12-18T03:34:01;85.20;;;20.80;;
58338;SDS011;48278;52.704;6.536;2022-12-18T03:36:30;70.35;;;17.08;;
58338;SDS011;48278;52.704;6.536;2022-12-18T03:38:57;72.10;;;21.03;;
58338;SDS011;48278;52.704;6.536;2022-12-18T03:41:42;70.40;;;19.10;;
58338;SDS011;48278;52.704;6.536;2022-12-18T03:47:03;54.85;;;17.13;;
58338;SDS011;48278;52.704;6.536;2022-12-18T03:52:41;63.95;;;19.67;;
58338;SDS011;48278;52.704;6.536;2022-12-18T03:55:14;60.22;;;17.33;;
58338;SDS011;48278;52.704;6.536;2022-12-18T04:00:14;62.03;;;19.00;;
58338;SDS011;48278;52.704;6.536;2022-12-18T04:02:43;66.75;;;18.20;;
58338;SDS011;48278;52.704;6.536;2022-12-18T04:05:14;67.38;;;18.70;;
58338;SDS011;48278;52.704;6.536;2022-12-18T04:07:40;55.72;;;17.85;;
58338;SDS011;48278;52.704;6.536;2022-12-18T04:10:07;62.17;;;17.23;;
58338;SDS011;48278;52.704;6.536;2022-12-18T04:12:36;53.05;;;17.85;;
58338;SDS011;48278;52.704;6.536;2022-12-18T04:15:02;59.13;;;18.80;;
58338;SDS011;48278;52.704;6.536;2022-12-18T04:17:29;69.70;;;18.83;;
58338;SDS011;48278;52.704;6.536;2022-12-18T04:19:55;57.13;;;17.80;;
58338;SDS011;48278;52.704;6.536;2022-12-18T04:22:21;55.67;;;17.95;;
58338;SDS011;48278;52.704;6.536;2022-12-18T04:24:46;53.90;;;16.90;;
58338;SDS011;48278;52.704;6.536;2022-12-18T04:27:12;63.22;;;18.15;;
58338;SDS011;48278;52.704;6.536;2022-12-18T04:29:38;55.50;;;17.58;;
58338;SDS011;48278;52.704;6.536;2022-12-18T04:32:04;62.92;;;17.98;;
58338;SDS011;48278;52.704;6.536;2022-12-18T04:34:30;65.75;;;18.08;;
58338;SDS011;48278;52.704;6.536;2022-12-18T04:36:56;52.10;;;16.02;;
58338;SDS011;48278;52.704;6.536;2022-12-18T04:39:21;56.05;;;18.42;;
58338;SDS011;48278;52.704;6.536;2022-12-18T04:41:47;53.92;;;16.75;;
58338;SDS011;48278;52.704;6.536;2022-12-18T04:44:13;54.17;;;16.02;;
58338;SDS011;48278;52.704;6.536;2022-12-18T04:46:39;44.42;;;14.00;;
58338;SDS011;48278;52.704;6.536;2022-12-18T04:49:04;42.78;;;13.63;;
58338;SDS011;48278;52.704;6.536;2022-12-18T04:51:30;49.13;;;15.48;;
58338;SDS011;48278;52.704;6.536;2022-12-18T04:53:56;47.13;;;15.75;;
58338;SDS011;48278;52.704;6.536;2022-12-18T04:56:22;34.47;;;10.77;;
58338;SDS011;48278;52.704;6.536;2022-12-18T04:58:47;49.25;;;15.35;;
58338;SDS011;48278;52.704;6.536;2022-12-18T05:01:14;47.40;;;15.45;;
58338;SDS011;48278;52.704;6.536;2022-12-18T05:03:41;46.42;;;14.23;;
58338;SDS011;48278;52.704;6.536;2022-12-18T05:06:07;37.55;;;12.75;;
58338;SDS011;48278;52.704;6.536;2022-12-18T05:08:34;49.87;;;16.23;;
58338;SDS011;48278;52.704;6.536;2022-12-18T05:11:00;48.70;;;16.20;;
58338;SDS011;48278;52.704;6.536;2022-12-18T05:13:37;44.35;;;14.35;;
58338;SDS011;48278;52.704;6.536;2022-12-18T05:16:03;44.20;;;14.07;;
58338;SDS011;48278;52.704;6.536;2022-12-18T05:18:29;46.88;;;14.05;;
58338;SDS011;48278;52.704;6.536;2022-12-18T05:20:55;44.20;;;15.20;;
58338;SDS011;48278;52.704;6.536;2022-12-18T05:23:21;48.78;;;14.63;;
58338;SDS011;48278;52.704;6.536;2022-12-18T05:25:58;42.55;;;13.05;;
58338;SDS011;48278;52.704;6.536;2022-12-18T05:28:27;39.55;;;13.02;;
58338;SDS011;48278;52.704;6.536;2022-12-18T05:30:55;41.92;;;13.27;;
58338;SDS011;48278;52.704;6.536;2022-12-18T05:33:25;40.72;;;14.27;;
58338;SDS011;48278;52.704;6.536;2022-12-18T05:35:54;44.72;;;13.40;;
58338;SDS011;48278;52.704;6.536;2022-12-18T05:38:21;41.28;;;13.60;;
58338;SDS011;48278;52.704;6.536;2022-12-18T05:40:48;39.15;;;13.90;;
58338;SDS011;48278;52.704;6.536;2022-12-18T05:43:15;50.13;;;15.70;;
58338;SDS011;48278;52.704;6.536;2022-12-18T05:45:41;31.17;;;10.90;;
58338;SDS011;48278;52.704;6.536;2022-12-18T05:48:10;40.75;;;14.60;;
58338;SDS011;48278;52.704;6.536;2022-12-18T05:50:36;44.53;;;12.98;;
58338;SDS011;48278;52.704;6.536;2022-12-18T05:53:03;40.17;;;13.95;;
58338;SDS011;48278;52.704;6.536;2022-12-18T05:55:33;44.25;;;15.40;;
58338;SDS011;48278;52.704;6.536;2022-12-18T05:58:00;42.45;;;13.73;;
58338;SDS011;48278;52.704;6.536;2022-12-18T06:00:26;38.60;;;14.20;;
58338;SDS011;48278;52.704;6.536;2022-12-18T06:02:52;54.40;;;16.13;;
58338;SDS011;48278;52.704;6.536;2022-12-18T06:05:18;48.67;;;14.85;;
58338;SDS011;48278;52.704;6.536;2022-12-18T06:07:46;41.03;;;13.88;;
58338;SDS011;48278;52.704;6.536;2022-12-18T06:10:12;43.65;;;14.73;;
58338;SDS011;48278;52.704;6.536;2022-12-18T06:12:38;45.38;;;15.10;;
58338;SDS011;48278;52.704;6.536;2022-12-18T06:15:04;42.10;;;15.15;;
58338;SDS011;48278;52.704;6.536;2022-12-18T06:17:30;37.67;;;13.48;;
58338;SDS011;48278;52.704;6.536;2022-12-18T06:19:57;40.53;;;14.48;;
58338;SDS011;48278;52.704;6.536;2022-12-18T06:22:23;44.17;;;14.15;;
58338;SDS011;48278;52.704;6.536;2022-12-18T06:24:49;43.33;;;14.05;;
58338;SDS011;48278;52.704;6.536;2022-12-18T06:27:15;38.03;;;12.95;;
58338;SDS011;48278;52.704;6.536;2022-12-18T06:29:41;46.97;;;14.73;;
58338;SDS011;48278;52.704;6.536;2022-12-18T06:32:07;39.35;;;14.50;;
58338;SDS011;48278;52.704;6.536;2022-12-18T06:34:33;40.92;;;15.32;;
58338;SDS011;48278;52.704;6.536;2022-12-18T06:36:59;49.03;;;15.95;;
58338;SDS011;48278;52.704;6.536;2022-12-18T06:39:28;39.22;;;14.52;;
58338;SDS011;48278;52.704;6.536;2022-12-18T06:41:54;49.90;;;15.77;;
58338;SDS011;48278;52.704;6.536;2022-12-18T06:44:20;40.53;;;13.65;;
58338;SDS011;48278;52.704;6.536;2022-12-18T06:46:46;42.05;;;13.00;;
58338;SDS011;48278;52.704;6.536;2022-12-18T06:49:12;32.75;;;12.88;;
58338;SDS011;48278;52.704;6.536;2022-12-18T06:51:38;31.52;;;10.60;;
58338;SDS011;48278;52.704;6.536;2022-12-18T06:54:04;42.55;;;14.27;;
58338;SDS011;48278;52.704;6.536;2022-12-18T06:56:30;41.97;;;13.68;;
58338;SDS011;48278;52.704;6.536;2022-12-18T06:58:56;38.90;;;13.27;;
58338;SDS011;48278;52.704;6.536;2022-12-18T07:01:22;34.72;;;12.98;;
58338;SDS011;48278;52.704;6.536;2022-12-18T07:03:51;36.13;;;12.93;;
58338;SDS011;48278;52.704;6.536;2022-12-18T07:06:22;50.15;;;19.83;;
58338;SDS011;48278;52.704;6.536;2022-12-18T07:08:49;60.78;;;20.85;;
58338;SDS011;48278;52.704;6.536;2022-12-18T07:11:16;51.10;;;20.40;;
58338;SDS011;48278;52.704;6.536;2022-12-18T07:13:43;41.45;;;16.70;;
58338;SDS011;48278;52.704;6.536;2022-12-18T07:16:10;61.70;;;24.60;;
58338;SDS011;48278;52.704;6.536;2022-12-18T07:18:38;50.08;;;17.70;;
58338;SDS011;48278;52.704;6.536;2022-12-18T07:21:05;68.53;;;29.80;;
58338;SDS011;48278;52.704;6.536;2022-12-18T07:23:32;63.08;;;25.73;;
58338;SDS011;48278;52.704;6.536;2022-12-18T07:26:06;44.97;;;19.45;;
58338;SDS011;48278;52.704;6.536;2022-12-18T07:28:34;61.63;;;27.40;;
58338;SDS011;48278;52.704;6.536;2022-12-18T07:31:05;88.18;;;43.92;;
58338;SDS011;48278;52.704;6.536;2022-12-18T07:33:32;55.92;;;25.00;;
58338;SDS011;48278;52.704;6.536;2022-12-18T07:35:59;37.40;;;14.25;;
58338;SDS011;48278;52.704;6.536;2022-12-18T07:38:25;34.13;;;11.88;;
58338;SDS011;48278;52.704;6.536;2022-12-18T07:40:51;37.05;;;12.82;;
58338;SDS011;48278;52.704;6.536;2022-12-18T07:43:16;35.88;;;12.50;;
58338;SDS011;48278;52.704;6.536;2022-12-18T07:45:42;38.05;;;13.00;;
58338;SDS011;48278;52.704;6.536;2022-12-18T07:48:08;31.45;;;11.40;;
58338;SDS011;48278;52.704;6.536;2022-12-18T07:50:34;21.67;;;8.38;;
58338;SDS011;48278;52.704;6.536;2022-12-18T07:52:59;32.30;;;11.88;;
58338;SDS011;48278;52.704;6.536;2022-12-18T07:55:31;28.90;;;10.85;;
58338;SDS011;48278;52.704;6.536;2022-12-18T07:58:00;31.02;;;10.57;;
58338;SDS011;48278;52.704;6.536;2022-12-18T08:00:26;34.70;;;11.00;;
58338;SDS011;48278;52.704;6.536;2022-12-18T08:02:52;31.65;;;12.80;;
58338;SDS011;48278;52.704;6.536;2022-12-18T08:05:18;37.25;;;12.60;;
58338;SDS011;48278;52.704;6.536;2022-12-18T08:07:44;70.93;;;28.83;;
58338;SDS011;48278;52.704;6.536;2022-12-18T08:10:09;69.50;;;27.65;;
58338;SDS011;48278;52.704;6.536;2022-12-18T08:12:35;50.50;;;22.33;;
58338;SDS011;48278;52.704;6.536;2022-12-18T08:15:01;55.63;;;22.95;;
58338;SDS011;48278;52.704;6.536;2022-12-18T08:17:27;62.42;;;27.95;;
58338;SDS011;48278;52.704;6.536;2022-12-18T08:19:52;39.10;;;14.32;;
58338;SDS011;48278;52.704;6.536;2022-12-18T08:22:18;41.47;;;15.52;;
58338;SDS011;48278;52.704;6.536;2022-12-18T08:24:44;42.50;;;20.00;;
58338;SDS011;48278;52.704;6.536;2022-12-18T08:27:10;42.40;;;14.82;;
58338;SDS011;48278;52.704;6.536;2022-12-18T08:29:35;47.17;;;18.67;;
58338;SDS011;48278;52.704;6.536;2022-12-18T08:32:01;37.05;;;13.00;;
58338;SDS011;48278;52.704;6.536;2022-12-18T08:34:27;33.17;;;13.23;;
58338;SDS011;48278;52.704;6.536;2022-12-18T08:36:53;19.63;;;7.68;;
58338;SDS011;48278;52.704;6.536;2022-12-18T08:39:19;35.80;;;12.40;;
58338;SDS011;48278;52.704;6.536;2022-12-18T08:41:44;31.67;;;12.02;;
58338;SDS011;48278;52.704;6.536;2022-12-18T08:44:30;19.30;;;7.05;;
58338;SDS011;48278;52.704;6.536;2022-12-18T08:47:06;26.23;;;11.05;;
58338;SDS011;48278;52.704;6.536;2022-12-18T08:49:33;25.77;;;9.35;;
58338;SDS011;48278;52.704;6.536;2022-12-18T08:51:59;26.25;;;9.77;;
58338;SDS011;48278;52.704;6.536;2022-12-18T08:54:25;22.83;;;7.60;;
58338;SDS011;48278;52.704;6.536;2022-12-18T08:56:51;23.10;;;7.43;;
58338;SDS011;48278;52.704;6.536;2022-12-18T08:59:17;26.20;;;8.63;;
58338;SDS011;48278;52.704;6.536;2022-12-18T09:01:44;19.88;;;7.55;;
58338;SDS011;48278;52.704;6.536;2022-12-18T09:04:11;27.60;;;10.93;;
58338;SDS011;48278;52.704;6.536;2022-12-18T09:06:37;22.15;;;7.18;;
58338;SDS011;48278;52.704;6.536;2022-12-18T09:09:03;20.67;;;7.55;;
58338;SDS011;48278;52.704;6.536;2022-12-18T09:11:30;19.77;;;6.10;;
58338;SDS011;48278;52.704;6.536;2022-12-18T09:13:57;19.65;;;8.25;;
58338;SDS011;48278;52.704;6.536;2022-12-18T09:16:24;30.65;;;11.20;;
58338;SDS011;48278;52.704;6.536;2022-12-18T09:18:53;32.30;;;11.38;;
58338;SDS011;48278;52.704;6.536;2022-12-18T09:21:25;23.33;;;10.02;;
58338;SDS011;48278;52.704;6.536;2022-12-18T09:23:53;27.48;;;11.10;;
58338;SDS011;48278;52.704;6.536;2022-12-18T09:26:21;26.90;;;10.70;;
58338;SDS011;48278;52.704;6.536;2022-12-18T09:28:47;20.70;;;8.80;;
58338;SDS011;48278;52.704;6.536;2022-12-18T09:31:13;22.80;;;9.38;;
58338;SDS011;48278;52.704;6.536;2022-12-18T09:33:39;24.15;;;8.13;;
58338;SDS011;48278;52.704;6.536;2022-12-18T09:36:06;19.00;;;7.38;;
58338;SDS011;48278;52.704;6.536;2022-12-18T09:38:34;21.63;;;8.90;;
58338;SDS011;48278;52.704;6.536;2022-12-18T09:41:03;26.52;;;10.20;;
58338;SDS011;48278;52.704;6.536;2022-12-18T09:43:43;26.92;;;9.52;;
58338;SDS011;48278;52.704;6.536;2022-12-18T09:46:17;17.85;;;7.07;;
58338;SDS011;48278;52.704;6.536;2022-12-18T09:48:50;16.85;;;6.40;;
58338;SDS011;48278;52.704;6.536;2022-12-18T09:51:25;24.65;;;9.23;;
58338;SDS011;48278;52.704;6.536;2022-12-18T09:53:59;25.80;;;9.20;;
58338;SDS011;48278;52.704;6.536;2022-12-18T09:56:31;17.20;;;6.75;;
58338;SDS011;48278;52.704;6.536;2022-12-18T09:59:05;14.85;;;5.30;;
58338;SDS011;48278;52.704;6.536;2022-12-18T10:01:31;12.77;;;5.40;;
58338;SDS011;48278;52.704;6.536;2022-12-18T10:04:01;21.98;;;6.35;;
58338;SDS011;48278;52.704;6.536;2022-12-18T10:06:46;21.80;;;8.55;;
58338;SDS011;48278;52.704;6.536;2022-12-18T10:09:36;18.27;;;7.80;;
58338;SDS011;48278;52.704;6.536;2022-12-18T10:17:25;16.88;;;7.28;;
58338;SDS011;48278;52.704;6.536;2022-12-18T10:23:06;23.95;;;9.18;;
58338;SDS011;48278;52.704;6.536;2022-12-18T10:28:16;24.38;;;9.50;;
58338;SDS011;48278;52.704;6.536;2022-12-18T10:30:43;24.77;;;9.57;;
58338;SDS011;48278;52.704;6.536;2022-12-18T10:33:13;22.60;;;8.57;;
58338;SDS011;48278;52.704;6.536;2022-12-18T10:35:47;23.98;;;8.75;;
58338;SDS011;48278;52.704;6.536;2022-12-18T10:43:30;20.15;;;8.20;;
58338;SDS011;48278;52.704;6.536;2022-12-18T10:46:00;20.98;;;8.85;;
58338;SDS011;48278;52.704;6.536;2022-12-18T10:51:19;15.30;;;6.85;;
58338;SDS011;48278;52.704;6.536;2022-12-18T10:53:50;17.13;;;7.63;;
58338;SDS011;48278;52.704;6.536;2022-12-18T10:56:26;19.55;;;7.65;;
58338;SDS011;48278;52.704;6.536;2022-12-18T10:59:04;13.95;;;4.50;;
58338;SDS011;48278;52.704;6.536;2022-12-18T11:01:47;18.00;;;9.00;;
58338;SDS011;48278;52.704;6.536;2022-12-18T11:07:03;19.05;;;7.05;;
58338;SDS011;48278;52.704;6.536;2022-12-18T11:09:34;16.55;;;6.97;;
58338;SDS011;48278;52.704;6.536;2022-12-18T11:12:02;18.42;;;7.50;;
58338;SDS011;48278;52.704;6.536;2022-12-18T11:17:21;15.95;;;5.80;;
58338;SDS011;48278;52.704;6.536;2022-12-18T11:20:07;17.23;;;7.07;;
58338;SDS011;48278;52.704;6.536;2022-12-18T11:23:01;11.77;;;4.68;;
58338;SDS011;48278;52.704;6.536;2022-12-18T11:25:31;17.23;;;6.78;;
58338;SDS011;48278;52.704;6.536;2022-12-18T11:30:32;25.25;;;10.70;;
58338;SDS011;48278;52.704;6.536;2022-12-18T11:40:43;12.85;;;5.10;;
58338;SDS011;48278;52.704;6.536;2022-12-18T11:43:21;12.85;;;4.90;;
58338;SDS011;48278;52.704;6.536;2022-12-18T11:45:59;10.75;;;5.10;;
58338;SDS011;48278;52.704;6.536;2022-12-18T11:48:40;17.65;;;7.03;;
58338;SDS011;48278;52.704;6.536;2022-12-18T11:51:14;10.27;;;4.25;;
58338;SDS011;48278;52.704;6.536;2022-12-18T11:53:46;12.98;;;5.47;;
58338;SDS011;48278;52.704;6.536;2022-12-18T11:56:35;9.48;;;3.60;;
58338;SDS011;48278;52.704;6.536;2022-12-18T11:59:08;8.98;;;3.78;;
58338;SDS011;48278;52.704;6.536;2022-12-18T12:01:50;18.13;;;6.03;;
58338;SDS011;48278;52.704;6.536;2022-12-18T12:04:26;15.93;;;5.80;;
58338;SDS011;48278;52.704;6.536;2022-12-18T12:09:52;11.88;;;5.15;;
58338;SDS011;48278;52.704;6.536;2022-12-18T12:12:35;10.60;;;4.38;;
58338;SDS011;48278;52.704;6.536;2022-12-18T12:15:17;11.68;;;3.28;;
58338;SDS011;48278;52.704;6.536;2022-12-18T12:17:45;8.15;;;3.22;;
58338;SDS011;48278;52.704;6.536;2022-12-18T12:26:10;5.63;;;2.15;;
58338;SDS011;48278;52.704;6.536;2022-12-18T12:34:30;7.25;;;2.85;;
58338;SDS011;48278;52.704;6.536;2022-12-18T12:40:02;5.38;;;1.88;;
58338;SDS011;48278;52.704;6.536;2022-12-18T12:42:35;12.15;;;4.60;;
58338;SDS011;48278;52.704;6.536;2022-12-18T12:45:36;9.52;;;2.63;;
58338;SDS011;48278;52.704;6.536;2022-12-18T12:48:36;11.13;;;4.43;;
58338;SDS011;48278;52.704;6.536;2022-12-18T12:51:32;9.73;;;3.47;;
58338;SDS011;48278;52.704;6.536;2022-12-18T12:54:05;12.02;;;4.80;;
58338;SDS011;48278;52.704;6.536;2022-12-18T12:59:34;14.52;;;5.30;;
58338;SDS011;48278;52.704;6.536;2022-12-18T13:08:27;10.50;;;3.25;;
58338;SDS011;48278;52.704;6.536;2022-12-18T13:10:55;10.57;;;4.53;;
58338;SDS011;48278;52.704;6.536;2022-12-18T13:13:51;9.55;;;3.35;;
58338;SDS011;48278;52.704;6.536;2022-12-18T13:16:19;12.75;;;3.72;;
58338;SDS011;48278;52.704;6.536;2022-12-18T13:18:50;11.15;;;4.10;;
58338;SDS011;48278;52.704;6.536;2022-12-18T13:21:26;18.90;;;7.18;;
58338;SDS011;48278;52.704;6.536;2022-12-18T13:24:14;11.68;;;2.90;;
58338;SDS011;48278;52.704;6.536;2022-12-18T13:26:47;10.60;;;3.95;;
58338;SDS011;48278;52.704;6.536;2022-12-18T13:29:14;14.25;;;4.97;;
58338;SDS011;48278;52.704;6.536;2022-12-18T13:32:22;8.93;;;3.47;;
58338;SDS011;48278;52.704;6.536;2022-12-18T13:37:53;9.43;;;3.30;;
58338;SDS011;48278;52.704;6.536;2022-12-18T13:43:15;13.63;;;4.55;;
58338;SDS011;48278;52.704;6.536;2022-12-18T13:48:25;7.95;;;2.85;;
58338;SDS011;48278;52.704;6.536;2022-12-18T13:53:22;8.50;;;3.35;;
58338;SDS011;48278;52.704;6.536;2022-12-18T13:55:54;9.52;;;3.42;;
58338;SDS011;48278;52.704;6.536;2022-12-18T13:58:20;12.13;;;4.40;;
58338;SDS011;48278;52.704;6.536;2022-12-18T14:00:46;13.07;;;4.05;;
58338;SDS011;48278;52.704;6.536;2022-12-18T14:03:19;9.93;;;4.20;;
58338;SDS011;48278;52.704;6.536;2022-12-18T14:06:10;8.68;;;3.47;;
58338;SDS011;48278;52.704;6.536;2022-12-18T14:11:06;10.68;;;4.35;;
58338;SDS011;48278;52.704;6.536;2022-12-18T14:13:36;13.52;;;5.15;;
58338;SDS011;48278;52.704;6.536;2022-12-18T14:16:06;17.25;;;5.13;;
58338;SDS011;48278;52.704;6.536;2022-12-18T14:20:59;13.00;;;4.80;;
58338;SDS011;48278;52.704;6.536;2022-12-18T14:23:27;11.00;;;3.38;;
58338;SDS011;48278;52.704;6.536;2022-12-18T14:28:59;10.80;;;4.32;;
58338;SDS011;48278;52.704;6.536;2022-12-18T14:31:42;14.57;;;5.03;;
58338;SDS011;48278;52.704;6.536;2022-12-18T14:34:14;12.40;;;4.40;;
58338;SDS011;48278;52.704;6.536;2022-12-18T14:36:41;14.00;;;4.60;;
58338;SDS011;48278;52.704;6.536;2022-12-18T14:39:17;16.50;;;5.57;;
58338;SDS011;48278;52.704;6.536;2022-12-18T14:41:43;12.13;;;5.32;;
58338;SDS011;48278;52.704;6.536;2022-12-18T14:44:11;19.58;;;6.70;;
58338;SDS011;48278;52.704;6.536;2022-12-18T14:46:38;15.07;;;5.20;;
58338;SDS011;48278;52.704;6.536;2022-12-18T14:49:24;16.83;;;5.47;;
58338;SDS011;48278;52.704;6.536;2022-12-18T14:51:59;12.02;;;5.18;;
58338;SDS011;48278;52.704;6.536;2022-12-18T14:54:28;15.15;;;5.20;;
58338;SDS011;48278;52.704;6.536;2022-12-18T14:59:22;15.27;;;5.85;;
58338;SDS011;48278;52.704;6.536;2022-12-18T15:04:26;18.33;;;8.98;;
58338;SDS011;48278;52.704;6.536;2022-12-18T15:07:04;15.70;;;6.30;;
58338;SDS011;48278;52.704;6.536;2022-12-18T15:12:37;16.00;;;5.07;;
58338;SDS011;48278;52.704;6.536;2022-12-18T15:20:40;18.17;;;7.88;;
58338;SDS011;48278;52.704;6.536;2022-12-18T15:23:19;16.67;;;6.80;;
58338;SDS011;48278;52.704;6.536;2022-12-18T15:25:55;22.90;;;8.15;;
58338;SDS011;48278;52.704;6.536;2022-12-18T15:33:37;14.88;;;6.65;;
58338;SDS011;48278;52.704;6.536;2022-12-18T15:36:10;12.57;;;4.80;;
58338;SDS011;48278;52.704;6.536;2022-12-18T15:38:37;19.15;;;6.90;;
58338;SDS011;48278;52.704;6.536;2022-12-18T15:41:03;13.48;;;4.50;;
58338;SDS011;48278;52.704;6.536;2022-12-18T15:43:37;17.85;;;6.57;;
58338;SDS011;48278;52.704;6.536;2022-12-18T15:46:03;15.30;;;6.65;;
58338;SDS011;48278;52.704;6.536;2022-12-18T15:48:34;17.90;;;7.50;;
58338;SDS011;48278;52.704;6.536;2022-12-18T15:51:04;15.80;;;6.95;;
58338;SDS011;48278;52.704;6.536;2022-12-18T15:53:34;18.52;;;7.60;;
58338;SDS011;48278;52.704;6.536;2022-12-18T15:56:00;16.55;;;6.07;;
58338;SDS011;48278;52.704;6.536;2022-12-18T15:58:43;11.48;;;4.60;;
58338;SDS011;48278;52.704;6.536;2022-12-18T16:01:09;16.83;;;7.03;;
58338;SDS011;48278;52.704;6.536;2022-12-18T16:03:36;10.68;;;4.70;;
58338;SDS011;48278;52.704;6.536;2022-12-18T16:06:02;16.17;;;6.65;;
58338;SDS011;48278;52.704;6.536;2022-12-18T16:08:28;11.70;;;4.50;;
58338;SDS011;48278;52.704;6.536;2022-12-18T16:10:55;11.10;;;4.95;;
58338;SDS011;48278;52.704;6.536;2022-12-18T16:13:22;12.70;;;4.05;;
58338;SDS011;48278;52.704;6.536;2022-12-18T16:15:48;8.98;;;3.65;;
58338;SDS011;48278;52.704;6.536;2022-12-18T16:18:14;17.48;;;7.28;;
58338;SDS011;48278;52.704;6.536;2022-12-18T16:20:40;15.75;;;5.75;;
58338;SDS011;48278;52.704;6.536;2022-12-18T16:23:05;14.77;;;6.20;;
58338;SDS011;48278;52.704;6.536;2022-12-18T16:25:31;17.42;;;5.90;;
58338;SDS011;48278;52.704;6.536;2022-12-18T16:27:58;21.83;;;8.40;;
58338;SDS011;48278;52.704;6.536;2022-12-18T16:30:25;18.50;;;7.93;;
58338;SDS011;48278;52.704;6.536;2022-12-18T16:32:56;15.43;;;6.22;;
58338;SDS011;48278;52.704;6.536;2022-12-18T16:35:22;12.40;;;5.32;;
58338;SDS011;48278;52.704;6.536;2022-12-18T16:37:49;18.10;;;6.07;;
58338;SDS011;48278;52.704;6.536;2022-12-18T16:40:15;21.25;;;8.45;;
58338;SDS011;48278;52.704;6.536;2022-12-18T16:42:42;16.20;;;5.57;;
58338;SDS011;48278;52.704;6.536;2022-12-18T16:45:10;12.55;;;4.28;;
58338;SDS011;48278;52.704;6.536;2022-12-18T16:47:40;15.55;;;6.10;;
58338;SDS011;48278;52.704;6.536;2022-12-18T16:50:06;16.55;;;7.15;;
58338;SDS011;48278;52.704;6.536;2022-12-18T16:52:33;16.50;;;6.53;;
58338;SDS011;48278;52.704;6.536;2022-12-18T16:54:59;15.23;;;7.15;;
58338;SDS011;48278;52.704;6.536;2022-12-18T16:57:25;15.23;;;6.75;;
58338;SDS011;48278;52.704;6.536;2022-12-18T16:59:51;11.98;;;5.05;;